Аэропорт: Адлер. Сочи

ICAO: URSS

METAR:
2019-09-21 15:30:00
URSS 211530Z 04004MPS 9999 -SHRA FEW015 BKN050CB BKN083 11/09 Q1020 WS ALL RWY R02/290055 R06/290055 NOSIG RMK R06/05003MPS MT OBSC QFE764
METAR:
2019-09-21 13:14:00
TAF AMD URSS 211314Z 2114/2212 28006G11MPS 9999 SCT040CB BKN100 TEMPO 2114/2116 -TSRA BECMG 2116/2117 05005MPS BKN030CB TEMPO 2117/2124 -TSRA BECMG 2207/2208 23005MPS SCT040 TEMPO 2208/2212 18005MPS